»·PEaware :: N502EX KPDX-KLAS

N502EX :: KPDX-KLAS

FLIGHT INFORMATION

Flight Status: Arrived
Operator: Privately registered:
United States
More flights under this callsign
Pilot: Anonymous 12254 (12254)
Aircraft: DASSAULT AVIATION FALCON 50
(FA50)
More flights by this aircraft type
Origin: KPDX Portland Intl
United States
Destination: KLAS McCarran Intl
United States
More flights between these airports :: More routes between these airports
Route: CASCD2 PAWLI YERIN LIDAT BTY SUNST4
File this flight plan on PilotEdge
Remarks:
Altitude:
(Current/Filed)
31,000ft
Speed:
(Current/Filed)
350kts
Departed: 10-Apr-20 03:18 PM
Arrived: 10-Apr-20 05:26 PM
Distance/Time
Traveled:
663nm/2:07
Distance/Time
To Go:
Arrived

Flight Plot

Page will automatically refresh every two minutes.

Flight plan parsing failed; only flown route is shown


Map Options




Map Legend


Flown Route
Filed Route
Departure Airport
Arrival Airport
Navaid (VOR, NDB)
Fix

Horizontal Profiles

Position Reports

Time Latitude Longitude Heading Altitude Ground
Speed
10-Apr-20 14:47 45.585665 -122.605292 179 20ft 0kts
10-Apr-20 14:48 45.585665 -122.605292 179 20ft 0kts
10-Apr-20 14:49 45.585665 -122.605292 179 20ft 0kts
10-Apr-20 14:50 45.585665 -122.605292 179 20ft 0kts
10-Apr-20 14:51 45.585665 -122.605292 179 20ft 0kts
10-Apr-20 14:52 45.585665 -122.605292 179 20ft 0kts
10-Apr-20 14:53 45.585665 -122.605292 179 20ft 0kts
10-Apr-20 14:54 45.585665 -122.605292 179 20ft 0kts
10-Apr-20 14:55 45.585665 -122.605292 179 20ft 0kts
10-Apr-20 14:56 45.585665 -122.605292 179 20ft 0kts
10-Apr-20 14:57 45.585665 -122.605292 179 20ft 0kts
10-Apr-20 14:58 45.585665 -122.605292 179 20ft 0kts
10-Apr-20 14:59 45.585665 -122.605292 179 20ft 0kts
10-Apr-20 15:00 45.585665 -122.605292 179 20ft 0kts
10-Apr-20 15:01 45.585665 -122.605292 179 20ft 0kts
10-Apr-20 15:02 45.585665 -122.605292 179 20ft 0kts
10-Apr-20 15:03 45.585665 -122.605292 179 20ft 0kts
10-Apr-20 15:04 45.585665 -122.605292 179 20ft 0kts
10-Apr-20 15:05 45.585601 -122.605167 79 20ft 2kts
10-Apr-20 15:06 45.586379 -122.606128 269 20ft 3kts
10-Apr-20 15:07 45.586364 -122.607245 268 20ft 0kts
10-Apr-20 15:08 45.586364 -122.607245 268 20ft 0kts
10-Apr-20 15:09 45.586364 -122.607245 268 20ft 0kts
10-Apr-20 15:10 45.586362 -122.607435 268 20ft 3kts
10-Apr-20 15:11 45.587090 -122.608026 39 20ft 8kts
10-Apr-20 15:12 45.588697 -122.608200 298 21ft 14kts
10-Apr-20 15:14 45.590339 -122.615307 293 20ft 22kts
10-Apr-20 15:15 45.592547 -122.620931 299 22ft 8kts
10-Apr-20 15:16 45.593779 -122.622426 27 23ft 10kts
10-Apr-20 15:17 45.594675 -122.620251 119 23ft 25kts
10-Apr-20 15:18 45.575355 -122.570617 118 860ft 197kts
10-Apr-20 15:19 45.569313 -122.486392 98 2521ft 232kts
10-Apr-20 15:20 45.553620 -122.394130 104 4442ft 248kts
10-Apr-20 15:21 45.523859 -122.309371 144 7011ft 235kts
10-Apr-20 15:22 45.466414 -122.270210 167 9545ft 240kts
10-Apr-20 15:23 45.397944 -122.250044 168 12089ft 262kts
10-Apr-20 15:24 45.325435 -122.228870 168 14607ft 271kts
10-Apr-20 15:25 45.249505 -122.206759 168 17128ft 287kts
10-Apr-20 15:26 45.170887 -122.183922 168 19625ft 292kts
10-Apr-20 15:27 45.091973 -122.161077 168 22110ft 288kts
10-Apr-20 15:28 45.015878 -122.121225 154 24201ft 303kts
10-Apr-20 15:29 44.938168 -122.069247 154 26113ft 317kts
10-Apr-20 15:30 44.857921 -122.015609 154 28015ft 323kts
10-Apr-20 15:31 44.775644 -121.960786 154 29576ft 333kts
10-Apr-20 15:32 44.691200 -121.904698 154 31079ft 339kts
10-Apr-20 15:33 44.602640 -121.846072 154 31549ft 372kts
10-Apr-20 15:34 44.505550 -121.782024 154 31574ft 407kts
10-Apr-20 15:35 44.399928 -121.712616 154 31371ft 436kts
10-Apr-20 15:36 44.286947 -121.638684 154 31022ft 456kts
10-Apr-20 15:37 44.171875 -121.563677 154 30885ft 454kts
10-Apr-20 15:37 44.077466 -121.502432 154 30954ft 449kts
10-Apr-20 15:38 43.967457 -121.431311 154 31294ft 440kts
10-Apr-20 15:40 43.837455 -121.347640 155 30972ft 446kts
10-Apr-20 15:40 43.743482 -121.287402 155 30871ft 446kts
10-Apr-20 15:42 43.612814 -121.203997 155 30871ft 444kts
10-Apr-20 15:42 43.519612 -121.144744 155 30880ft 443kts
10-Apr-20 15:43 43.407685 -121.073860 155 30873ft 446kts
10-Apr-20 15:44 43.293706 -121.001984 155 30873ft 455kts
10-Apr-20 15:45 43.177953 -120.930496 158 30907ft 461kts
10-Apr-20 15:46 43.057384 -120.869121 159 30927ft 464kts
10-Apr-20 15:47 42.935858 -120.807975 159 30879ft 468kts
10-Apr-20 15:48 42.812937 -120.747365 159 30594ft 474kts
10-Apr-20 15:49 42.690369 -120.686126 159 30769ft 470kts
10-Apr-20 15:50 42.567745 -120.626238 159 30850ft 469kts
10-Apr-20 15:51 42.445514 -120.566326 159 30853ft 470kts
10-Apr-20 15:52 42.323395 -120.506401 159 30913ft 470kts
10-Apr-20 15:53 42.200444 -120.446835 159 31012ft 468kts
10-Apr-20 15:54 42.082086 -120.389483 159 30920ft 442kts
10-Apr-20 15:55 41.968241 -120.334525 160 30861ft 423kts
10-Apr-20 15:56 41.859830 -120.282372 160 30916ft 409kts
10-Apr-20 15:57 41.753983 -120.231641 160 30871ft 401kts
10-Apr-20 15:58 41.649780 -120.181876 160 30871ft 395kts
10-Apr-20 15:59 41.547284 -120.133091 160 30871ft 391kts
10-Apr-20 16:00 41.445448 -120.084784 160 30872ft 388kts
10-Apr-20 16:01 41.344036 -120.036836 160 30872ft 386kts
10-Apr-20 16:02 41.243177 -119.989308 160 30872ft 384kts
10-Apr-20 16:03 41.142792 -119.942158 160 30872ft 382kts
10-Apr-20 16:04 41.042844 -119.895363 160 30872ft 381kts
10-Apr-20 16:05 40.943223 -119.848867 160 30872ft 381kts
10-Apr-20 16:06 40.843553 -119.802508 160 30872ft 380kts
10-Apr-20 16:07 40.743696 -119.756209 160 30872ft 380kts
10-Apr-20 16:08 40.644117 -119.710192 160 30872ft 380kts
10-Apr-20 16:09 40.544599 -119.664327 160 30872ft 380kts
10-Apr-20 16:10 40.445177 -119.618652 160 30872ft 380kts
10-Apr-20 16:11 40.345469 -119.573004 160 30873ft 380kts
10-Apr-20 16:12 40.245781 -119.527504 160 30872ft 379kts
10-Apr-20 16:13 40.146479 -119.482318 160 30874ft 380kts
10-Apr-20 16:14 40.046896 -119.437148 160 30872ft 380kts
10-Apr-20 16:15 39.947327 -119.392124 160 30872ft 380kts
10-Apr-20 16:16 39.847657 -119.347197 161 30872ft 380kts
10-Apr-20 16:17 39.748160 -119.302470 161 30872ft 380kts
10-Apr-20 16:18 39.648222 -119.257699 161 30931ft 379kts
10-Apr-20 16:19 39.548761 -119.213273 161 30908ft 380kts
10-Apr-20 16:20 39.449091 -119.168887 161 30926ft 380kts
10-Apr-20 16:21 39.349214 -119.124545 161 30941ft 380kts
10-Apr-20 16:22 39.249351 -119.080343 161 30951ft 380kts
10-Apr-20 16:23 39.149298 -119.036191 161 30960ft 380kts
10-Apr-20 16:24 39.049463 -118.992269 161 30866ft 383kts
10-Apr-20 16:25 38.954897 -118.933310 140 30875ft 382kts
10-Apr-20 16:26 38.874446 -118.844138 138 30872ft 382kts
10-Apr-20 16:27 38.794516 -118.755212 138 30872ft 382kts
10-Apr-20 16:28 38.714093 -118.666019 138 30872ft 382kts
10-Apr-20 16:29 38.633934 -118.577389 138 30872ft 382kts
10-Apr-20 16:30 38.553390 -118.488606 138 30872ft 382kts
10-Apr-20 16:31 38.473209 -118.400495 138 30873ft 382kts
10-Apr-20 16:32 38.403092 -118.323662 139 30872ft 381kts
10-Apr-20 16:33 38.322900 -118.236039 139 30872ft 380kts
10-Apr-20 16:34 38.252946 -118.159819 139 30873ft 380kts
10-Apr-20 16:35 38.172675 -118.072604 139 30872ft 380kts
10-Apr-20 16:36 38.092443 -117.985693 139 30873ft 379kts
10-Apr-20 16:37 38.012018 -117.898833 139 30872ft 379kts
10-Apr-20 16:38 37.931844 -117.812500 139 30872ft 379kts
10-Apr-20 16:39 37.851603 -117.726356 139 30872ft 379kts
10-Apr-20 16:40 37.771086 -117.640168 139 30872ft 379kts
10-Apr-20 16:41 37.690289 -117.553936 139 30872ft 379kts
10-Apr-20 16:42 37.609991 -117.468489 139 30872ft 379kts
10-Apr-20 16:43 37.529178 -117.382748 139 30872ft 379kts
10-Apr-20 16:44 37.448412 -117.297305 140 30872ft 379kts
10-Apr-20 16:45 37.361911 -117.220014 146 30372ft 387kts
10-Apr-20 16:46 37.272533 -117.144217 146 29539ft 388kts
10-Apr-20 16:47 37.183817 -117.069205 146 28810ft 386kts
10-Apr-20 16:48 37.094656 -116.994034 146 28038ft 385kts
10-Apr-20 16:49 37.006349 -116.919795 146 27371ft 383kts
10-Apr-20 16:50 36.917904 -116.845653 146 26645ft 382kts
10-Apr-20 16:51 36.830158 -116.772306 146 25992ft 381kts
10-Apr-20 16:52 36.753997 -116.681008 131 25317ft 379kts
10-Apr-20 16:53 36.685308 -116.583145 130 24676ft 378kts
10-Apr-20 16:54 36.615907 -116.484515 130 24092ft 376kts
10-Apr-20 16:55 36.548093 -116.388422 130 23399ft 362kts
10-Apr-20 16:56 36.481426 -116.294225 131 21852ft 362kts
10-Apr-20 16:57 36.416302 -116.202461 131 20792ft 336kts
10-Apr-20 16:58 36.356458 -116.118360 131 19842ft 318kts
10-Apr-20 16:59 36.298380 -116.036943 131 18841ft 313kts
10-Apr-20 17:00 36.240665 -115.956231 131 17843ft 314kts
10-Apr-20 17:01 36.190819 -115.867954 113 16852ft 316kts
10-Apr-20 17:02 36.158349 -115.768646 111 15615ft 305kts
10-Apr-20 17:03 36.127635 -115.673286 111 14307ft 292kts
10-Apr-20 17:04 36.097841 -115.581050 111 13002ft 285kts
10-Apr-20 17:05 36.068556 -115.490657 111 11699ft 281kts
10-Apr-20 17:06 36.039994 -115.402760 111 10857ft 261kts
10-Apr-20 17:07 36.026783 -115.315977 95 9944ft 257kts
10-Apr-20 17:08 36.020441 -115.228493 95 9060ft 252kts
10-Apr-20 17:09 36.014629 -115.144646 94 8342ft 238kts
10-Apr-20 17:10 36.009375 -115.065508 94 7864ft 217kts
10-Apr-20 17:11 36.005201 -114.995125 94 7874ft 201kts
10-Apr-20 17:12 36.000863 -114.922720 94 7875ft 221kts
10-Apr-20 17:13 35.996136 -114.844628 94 7874ft 234kts
10-Apr-20 17:14 35.990815 -114.762603 94 7873ft 243kts
10-Apr-20 17:15 36.005354 -114.690502 12 7697ft 226kts
10-Apr-20 17:16 36.065058 -114.709636 341 6433ft 227kts
10-Apr-20 17:17 36.099120 -114.761616 262 4982ft 226kts
10-Apr-20 17:18 36.090776 -114.831957 261 4866ft 189kts
10-Apr-20 17:19 36.083563 -114.892464 261 4864ft 165kts
10-Apr-20 17:20 36.076604 -114.948658 259 3989ft 182kts
10-Apr-20 17:21 36.073777 -115.007140 268 3066ft 138kts
10-Apr-20 17:22 36.073461 -115.050763 270 2642ft 120kts
10-Apr-20 17:23 36.073527 -115.094119 269 2567ft 124kts
10-Apr-20 17:24 36.073633 -115.133623 269 2065ft 94kts
10-Apr-20 17:25 36.074448 -115.145342 300 2101ft 0kts
10-Apr-20 17:26 36.075387 -115.146558 352 2103ft 8kts

Navigation Log

Ident Type
Flight plan parsing failed, navigation log unavailable